Accueil
METAR-TAF:

METAR-TAF

Aéroports :

Aéroport international de San Francisco

San Francisco, Californie, États-Unis

latitude: 37-37-11N, longitude: 122-21-53W, altitude: 3 m

Observation

Le bulletin a été fait il y a 49 minutes, à 14:56 UTC
Vent 4 kt de sud/sud-ouest
Température 12°C
Humidité 67%
Pression 1010 hPa
Visibilité: 16.1 km
Quelques nuages à une hauteur de 20000 ft

METAR: KSFO 211456Z 20004KT 10SM FEW200 12/06 A2982 RMK AO2 SLP097 T01220056 53025

Heure: 07:45 (15:45 UTC)

Prévision

Le bulletin a été fait il y a 57 minutes, à 14:48 UTC
Prévision valable du 21 à 15 UTC au 22 à 18 UTC
Vent 6 kt de est/nord-est
Visibilité: 10 km
Ciel clair
A partir de 22 à 0100 UTC
Vent 5 kt de sud-ouest
Visibilité: 10 km
Ciel clair
A partir de 22 à 0400 UTC
Vent 5 kt de sud
Visibilité: 10 km
Ciel clair

TAF: KSFO 211448Z 2115/2218 06006KT P6SM SKC FM220100 23005KT P6SM SKC FM220400 19005KT P6SM SKC

Observations et prévisions météorologiques de plus de 4000 aéroports (messages METAR et TAF).

Les stations disponibles sont représentées par des disques jaunes et rouges sur la carte.

Passer la souris dessus pour voir le nom de la station.

Cliquer dessus pour voir les observations et prévisions météorologiques.

Pour changer de carte: cliquez sur les boutons verts avec une croix noire pour zoomer, sur le bouton vert avec un tiret pour effectuer un zoom arrière, ou sur les flèches vertes pour les cartes adjacentes.


METAR-TAF: